Time;durP1;ratioP1;P1;durP2;ratioP2;P2;SDS_P1;SDS_P2;PMS_P1;PMS_P2;Temp;Humidity;BMP_temperature;BMP_pressure;BME280_temperature;BME280_humidity;BME280_pressure;Samples;Min_cycle;Max_cycle;Signal;HPM_P1;HPM_P2
2022/07/24 00:01:50;;;;;;;5.50;2.20;;;15.00;99.90;;;;;;4769446;30;20089;-93
2022/07/24 00:04:17;;;;;;;4.90;2.40;;;15.10;99.90;;;;;;4770105;30;20062;-92
2022/07/24 00:06:43;;;;;;;7.35;2.50;;;15.10;99.90;;;;;;4771321;30;20059;-93
2022/07/24 00:09:09;;;;;;;4.00;2.30;;;15.10;99.90;;;;;;4769854;30;20477;-94
2022/07/24 00:11:35;;;;;;;6.47;2.45;;;15.00;99.90;;;;;;4763161;30;20086;-93
2022/07/24 00:14:01;;;;;;;5.47;2.40;;;15.10;99.90;;;;;;4752262;30;20546;-93
2022/07/24 00:16:27;;;;;;;3.95;2.10;;;15.10;99.90;;;;;;4736999;30;20052;-93
2022/07/24 00:18:52;;;;;;;5.60;3.03;;;15.10;99.90;;;;;;4752826;30;20062;-93
2022/07/24 00:21:21;;;;;;;8.57;3.15;;;15.10;99.90;;;;;;4752363;30;20467;-93
2022/07/24 00:23:47;;;;;;;6.88;2.40;;;15.10;99.90;;;;;;4767093;30;20056;-93
2022/07/24 00:26:13;;;;;;;6.22;2.67;;;15.10;99.90;;;;;;4751685;30;20060;-94
2022/07/24 00:28:39;;;;;;;5.60;2.88;;;15.10;99.90;;;;;;4752231;30;20180;-93
2022/07/24 00:31:05;;;;;;;8.00;2.83;;;15.10;99.90;;;;;;4751720;30;20050;-93
2022/07/24 00:33:31;;;;;;;6.53;2.90;;;15.10;99.90;;;;;;4737648;30;20435;-93
2022/07/24 00:35:56;;;;;;;9.25;3.08;;;15.10;99.90;;;;;;4737897;30;20055;-94
2022/07/24 00:38:22;;;;;;;6.68;2.88;;;15.30;99.90;;;;;;4751217;30;20617;-93
2022/07/24 00:40:48;;;;;;;7.40;2.90;;;15.10;99.90;;;;;;4752033;30;20095;-93
2022/07/24 00:43:16;;;;;;;5.95;3.03;;;15.20;99.90;;;;;;4751800;30;20051;-93
2022/07/24 00:45:42;;;;;;;7.30;2.60;;;15.10;99.90;;;;;;4736812;30;20051;-93
2022/07/24 00:48:07;;;;;;;8.18;2.80;;;15.20;99.90;;;;;;4737209;30;20040;-93
2022/07/24 00:50:34;;;;;;;4.18;2.50;;;15.10;99.90;;;;;;4735815;30;20495;-93
2022/07/24 00:52:59;;;;;;;6.00;2.90;;;15.10;99.90;;;;;;4766575;30;20062;-92
2022/07/24 00:55:26;;;;;;;9.20;3.33;;;15.10;99.90;;;;;;4765929;30;20150;-93
2022/07/24 00:57:51;;;;;;;5.47;3.17;;;15.10;99.90;;;;;;4752098;30;20048;-93
2022/07/24 01:00:19;;;;;;;6.22;3.00;;;15.10;99.90;;;;;;4751328;30;20056;-94
2022/07/24 01:02:45;;;;;;;6.93;3.92;;;15.10;99.90;;;;;;4766792;30;20135;-93
2022/07/24 01:05:12;;;;;;;6.70;3.80;;;15.10;99.90;;;;;;4769056;30;20056;-94
2022/07/24 01:07:38;;;;;;;5.65;3.70;;;15.10;99.90;;;;;;4770575;30;20082;-94
2022/07/24 01:10:05;;;;;;;8.13;3.90;;;15.10;99.90;;;;;;4770678;30;20056;-94
2022/07/24 01:12:33;;;;;;;6.75;4.18;;;15.10;99.90;;;;;;4755202;30;20086;-94
2022/07/24 01:14:59;;;;;;;11.52;3.75;;;15.10;99.90;;;;;;4755643;30;20090;-94
2022/07/24 01:17:30;;;;;;;8.20;4.63;;;15.10;99.90;;;;;;4769519;30;20079;-93
2022/07/24 01:19:57;;;;;;;5.82;4.10;;;15.10;99.90;;;;;;4770240;30;20071;-94
2022/07/24 01:22:23;;;;;;;5.88;4.15;;;15.00;99.90;;;;;;4754887;30;20056;-95
2022/07/24 01:24:49;;;;;;;6.35;4.00;;;15.00;99.90;;;;;;4755685;30;20493;-94
2022/07/24 01:27:15;;;;;;;8.05;3.97;;;15.00;99.90;;;;;;4769987;30;20052;-94
2022/07/24 01:29:41;;;;;;;6.20;3.67;;;15.10;99.90;;;;;;4754952;30;20051;-94
2022/07/24 01:32:07;;;;;;;9.27;4.57;;;15.00;99.90;;;;;;4754888;30;20043;-94
2022/07/24 01:34:32;;;;;;;6.65;4.18;;;15.00;99.90;;;;;;4754517;30;20056;-94
2022/07/24 01:36:58;;;;;;;9.40;4.40;;;15.00;99.90;;;;;;4755331;30;20079;-94
2022/07/24 01:39:24;;;;;;;8.45;4.53;;;15.00;99.90;;;;;;4754811;30;20052;-95
2022/07/24 01:41:51;;;;;;;8.02;4.38;;;15.00;99.90;;;;;;4740436;30;20063;-95
2022/07/24 01:44:16;;;;;;;7.53;4.30;;;15.10;99.90;;;;;;4740814;30;20054;-94
2022/07/24 01:46:42;;;;;;;7.65;4.25;;;15.00;99.90;;;;;;4739877;30;20412;-94
2022/07/24 01:49:10;;;;;;;8.68;4.30;;;15.00;99.90;;;;;;4739849;30;20568;-94
2022/07/24 01:51:35;;;;;;;8.77;4.47;;;15.00;99.90;;;;;;4740052;30;20059;-94
2022/07/24 01:54:02;;;;;;;10.80;4.05;;;15.00;99.90;;;;;;4739399;30;20059;-95
2022/07/24 01:56:29;;;;;;;6.35;3.95;;;15.00;99.90;;;;;;4739629;30;20065;-94
2022/07/24 01:58:54;;;;;;;7.78;4.00;;;15.00;99.90;;;;;;4740568;30;20135;-95
2022/07/24 02:01:21;;;;;;;8.15;4.00;;;15.00;99.90;;;;;;4739252;30;20163;-94
2022/07/24 02:03:48;;;;;;;7.22;4.35;;;15.00;99.90;;;;;;4740100;30;20060;-95
2022/07/24 02:06:14;;;;;;;8.05;4.53;;;15.00;99.90;;;;;;4739674;30;20054;-95
2022/07/24 02:08:40;;;;;;;8.68;4.18;;;15.00;99.90;;;;;;4739804;30;20147;-94
2022/07/24 02:11:06;;;;;;;6.53;4.32;;;15.00;99.90;;;;;;4739737;30;20475;-94
2022/07/24 02:13:31;;;;;;;7.88;4.18;;;14.90;99.90;;;;;;4739537;30;20113;-93
2022/07/24 02:15:57;;;;;;;6.50;4.20;;;14.90;99.90;;;;;;4753018;30;20047;-93
2022/07/24 02:18:23;;;;;;;5.63;4.30;;;14.90;99.90;;;;;;4739270;30;20056;-93
2022/07/24 02:20:49;;;;;;;7.35;4.55;;;14.90;99.90;;;;;;4754340;30;20047;-93
2022/07/24 02:23:17;;;;;;;9.52;4.60;;;14.90;99.90;;;;;;4753841;30;20048;-93
2022/07/24 02:25:45;;;;;;;10.23;4.18;;;14.90;99.90;;;;;;4739590;30;20056;-94
2022/07/24 02:28:11;;;;;;;8.93;4.80;;;14.90;99.90;;;;;;4754296;30;20092;-93
2022/07/24 02:30:37;;;;;;;6.07;4.45;;;14.80;99.90;;;;;;4753986;30;20142;-94
2022/07/24 02:33:03;;;;;;;9.88;4.90;;;14.80;99.90;;;;;;4754000;30;20108;-93
2022/07/24 02:35:34;;;;;;;6.32;4.07;;;14.90;99.90;;;;;;4754259;30;20064;-94
2022/07/24 02:38:00;;;;;;;11.43;5.10;;;14.80;99.90;;;;;;4739423;30;20048;-93
2022/07/24 02:40:26;;;;;;;8.30;4.53;;;14.80;99.90;;;;;;4753638;30;20196;-93
2022/07/24 02:42:52;;;;;;;8.02;3.97;;;14.80;99.90;;;;;;4739297;30;20138;-93
2022/07/24 02:45:20;;;;;;;10.80;4.90;;;14.80;99.90;;;;;;4752792;30;20098;-93
2022/07/24 02:47:50;;;;;;;6.68;5.05;;;14.80;99.90;;;;;;4753984;30;20112;-92
2022/07/24 02:50:16;;;;;;;8.48;4.65;;;14.80;99.90;;;;;;4753266;30;20427;-93
2022/07/24 02:52:42;;;;;;;7.28;5.00;;;14.80;99.90;;;;;;4752989;30;20056;-93
2022/07/24 02:55:09;;;;;;;7.15;4.97;;;14.80;99.90;;;;;;4738357;30;20056;-93
2022/07/24 02:57:35;;;;;;;11.20;4.90;;;14.80;99.90;;;;;;4738714;30;20051;-92
2022/07/24 03:00:06;;;;;;;9.27;4.90;;;14.80;99.90;;;;;;4753645;30;20044;-93
2022/07/24 03:02:33;;;;;;;7.55;4.72;;;14.80;99.90;;;;;;4754077;30;20074;-93
2022/07/24 03:04:58;;;;;;;8.30;4.63;;;14.80;99.90;;;;;;4753576;30;20091;-93
2022/07/24 03:07:24;;;;;;;10.73;5.13;;;14.80;99.90;;;;;;4752909;30;20090;-93
2022/07/24 03:09:50;;;;;;;7.47;4.70;;;14.80;99.90;;;;;;4753916;30;20048;-92
2022/07/24 03:12:15;;;;;;;11.38;5.45;;;14.80;99.90;;;;;;4753222;30;20086;-91
2022/07/24 03:14:41;;;;;;;11.73;5.10;;;14.80;99.90;;;;;;4753968;30;20454;-93
2022/07/24 03:17:07;;;;;;;10.65;5.43;;;14.80;99.90;;;;;;4752940;30;20512;-93
2022/07/24 03:19:32;;;;;;;11.77;4.80;;;14.80;99.90;;;;;;4752921;30;20069;-93
2022/07/24 03:21:58;;;;;;;8.30;5.05;;;14.90;99.90;;;;;;4753869;30;20113;-93
2022/07/24 03:24:24;;;;;;;8.13;5.20;;;14.80;99.90;;;;;;4752782;30;20412;-93
2022/07/24 03:26:49;;;;;;;9.88;5.10;;;14.80;99.90;;;;;;4752977;30;20048;-92
2022/07/24 03:29:15;;;;;;;8.32;4.68;;;14.80;99.90;;;;;;4753255;30;20135;-93
2022/07/24 03:31:41;;;;;;;8.38;5.45;;;14.80;99.90;;;;;;4752835;30;20405;-93
2022/07/24 03:34:07;;;;;;;12.85;5.30;;;14.80;99.90;;;;;;4752872;30;20070;-92
2022/07/24 03:36:32;;;;;;;8.35;5.15;;;14.80;99.90;;;;;;4752705;30;20055;-92
2022/07/24 03:38:58;;;;;;;8.40;4.80;;;14.80;99.90;;;;;;4755528;30;20102;-93
2022/07/24 03:41:24;;;;;;;6.28;4.65;;;14.80;99.90;;;;;;4770189;30;20147;-92
2022/07/24 03:43:50;;;;;;;9.02;5.07;;;14.80;99.90;;;;;;4770328;30;20089;-93
2022/07/24 03:46:15;;;;;;;6.32;4.57;;;14.80;99.90;;;;;;4770356;30;20505;-92
2022/07/24 03:48:41;;;;;;;7.30;4.68;;;14.80;99.90;;;;;;4770595;30;20047;-93
2022/07/24 03:51:07;;;;;;;8.57;5.07;;;14.80;99.90;;;;;;4770332;30;20067;-93
2022/07/24 03:53:33;;;;;;;11.32;4.95;;;14.80;99.90;;;;;;4770244;30;20055;-93
2022/07/24 03:55:58;;;;;;;9.02;4.97;;;14.80;99.90;;;;;;4769874;30;20059;-92
2022/07/24 03:58:24;;;;;;;7.50;4.90;;;14.80;99.90;;;;;;4770529;30;20043;-93
2022/07/24 04:00:50;;;;;;;8.07;5.22;;;14.90;99.90;;;;;;4769874;30;20405;-93
2022/07/24 04:03:15;;;;;;;9.13;5.13;;;14.90;99.90;;;;;;4770321;30;20051;-92
2022/07/24 04:05:41;;;;;;;10.27;4.75;;;14.90;99.90;;;;;;4770361;30;20475;-92
2022/07/24 04:08:07;;;;;;;7.95;5.72;;;14.90;99.90;;;;;;4769818;30;20039;-91
2022/07/24 04:10:32;;;;;;;7.60;4.70;;;14.90;99.90;;;;;;4770445;30;20489;-92
2022/07/24 04:12:58;;;;;;;8.50;5.05;;;15.00;99.90;;;;;;4770389;30;20484;-93
2022/07/24 04:15:24;;;;;;;7.82;4.80;;;15.10;99.90;;;;;;4768900;30;20147;-93
2022/07/24 04:17:49;;;;;;;9.68;5.00;;;15.10;99.90;;;;;;4770461;30;20167;-92
2022/07/24 04:20:24;;;;;;;6.25;4.85;;;15.10;99.90;;;;;;4769614;30;20500;-92
2022/07/24 04:22:49;;;;;;;9.52;5.10;;;15.10;99.90;;;;;;4770277;30;20054;-92
2022/07/24 04:25:15;;;;;;;7.88;5.28;;;15.10;99.90;;;;;;4769435;30;20043;-92
2022/07/24 04:27:42;;;;;;;9.18;5.53;;;15.10;99.90;;;;;;4769945;30;20055;-92
2022/07/24 04:30:10;;;;;;;7.90;5.05;;;15.10;99.90;;;;;;4769268;30;20043;-92
2022/07/24 04:32:36;;;;;;;9.30;4.45;;;15.10;99.90;;;;;;4769834;30;20047;-92
2022/07/24 04:35:02;;;;;;;8.23;4.85;;;15.10;99.90;;;;;;4770261;30;20066;-92
2022/07/24 04:37:28;;;;;;;5.68;4.78;;;15.20;99.90;;;;;;4769308;30;20047;-92
2022/07/24 04:39:53;;;;;;;8.07;4.75;;;15.10;99.90;;;;;;4769535;30;20066;-92
2022/07/24 04:42:19;;;;;;;8.98;5.07;;;15.20;99.90;;;;;;4769560;30;20062;-93
2022/07/24 04:44:45;;;;;;;6.63;4.95;;;15.20;99.90;;;;;;4769719;30;20115;-92
2022/07/24 04:47:10;;;;;;;9.32;5.40;;;15.20;99.90;;;;;;4769683;30;20043;-92
2022/07/24 04:49:36;;;;;;;9.32;4.80;;;15.30;99.90;;;;;;4769755;30;20220;-92
2022/07/24 04:52:02;;;;;;;7.55;5.03;;;15.40;99.90;;;;;;4770211;30;20058;-93
2022/07/24 04:54:28;;;;;;;7.40;5.03;;;15.40;99.90;;;;;;4769318;30;20420;-93
2022/07/24 04:56:53;;;;;;;7.43;4.97;;;15.50;99.90;;;;;;4769021;30;20055;-93
2022/07/24 04:59:19;;;;;;;11.10;4.70;;;15.50;99.90;;;;;;4768436;30;20197;-92
2022/07/24 05:01:45;;;;;;;11.30;4.35;;;15.50;99.90;;;;;;4769230;30;20473;-92
2022/07/24 05:04:10;;;;;;;12.07;5.10;;;15.50;99.90;;;;;;4769890;30;20071;-93
2022/07/24 05:06:36;;;;;;;8.90;5.03;;;15.60;99.90;;;;;;4769131;30;20090;-92
2022/07/24 05:09:02;;;;;;;11.13;4.88;;;15.60;99.90;;;;;;4769887;30;20052;-92
2022/07/24 05:11:28;;;;;;;11.73;4.90;;;15.70;99.90;;;;;;4784276;30;20068;-93
2022/07/24 05:13:54;;;;;;;6.65;4.72;;;15.80;99.90;;;;;;4769670;30;20488;-92
2022/07/24 05:16:19;;;;;;;11.20;5.10;;;15.90;99.90;;;;;;4768836;30;20593;-93
2022/07/24 05:18:45;;;;;;;8.13;4.57;;;16.10;99.90;;;;;;4769376;30;20158;-92
2022/07/24 05:21:11;;;;;;;7.07;4.45;;;16.30;99.90;;;;;;4769457;30;20167;-92
2022/07/24 05:23:37;;;;;;;7.30;4.65;;;16.50;99.90;;;;;;4769867;30;20047;-93
2022/07/24 05:26:02;;;;;;;8.95;4.82;;;16.60;99.90;;;;;;4769104;30;20415;-93
2022/07/24 05:28:28;;;;;;;8.23;4.60;;;16.70;99.90;;;;;;4769771;30;20069;-92
2022/07/24 05:30:54;;;;;;;7.85;4.60;;;16.80;99.90;;;;;;4769151;30;20117;-93
2022/07/24 05:33:19;;;;;;;7.63;5.05;;;16.90;99.90;;;;;;4769561;30;20129;-93
2022/07/24 05:35:45;;;;;;;8.10;5.00;;;17.00;99.90;;;;;;4769179;30;20075;-93
2022/07/24 05:38:11;;;;;;;7.55;4.57;;;17.10;99.90;;;;;;4769103;30;20047;-92
2022/07/24 05:40:37;;;;;;;8.52;4.90;;;17.20;99.90;;;;;;4769315;30;20078;-92
2022/07/24 05:43:02;;;;;;;9.25;4.97;;;17.20;99.90;;;;;;4769464;30;20071;-93
2022/07/24 05:45:28;;;;;;;9.13;4.93;;;17.30;99.90;;;;;;4769238;30;20054;-93
2022/07/24 05:47:54;;;;;;;6.53;4.40;;;17.30;99.90;;;;;;4769495;30;20568;-93
2022/07/24 05:50:20;;;;;;;7.70;4.68;;;17.30;99.90;;;;;;4770392;30;20055;-94
2022/07/24 05:52:45;;;;;;;7.80;5.00;;;17.40;99.90;;;;;;4772798;30;20400;-93
2022/07/24 05:55:11;;;;;;;9.45;4.32;;;17.40;99.90;;;;;;4771990;30;20054;-94
2022/07/24 05:57:37;;;;;;;6.50;4.55;;;17.50;99.90;;;;;;4772319;30;20097;-94
2022/07/24 06:00:04;;;;;;;8.02;4.82;;;17.50;99.90;;;;;;4772293;30;20401;-93
2022/07/24 06:02:29;;;;;;;8.32;4.93;;;17.50;99.90;;;;;;4771924;30;20394;-94
2022/07/24 06:04:55;;;;;;;9.27;5.07;;;17.50;99.90;;;;;;4767946;30;20058;-95
2022/07/24 06:07:21;;;;;;;10.45;5.15;;;17.60;99.90;;;;;;4755228;30;20175;-94
2022/07/24 06:09:47;;;;;;;7.85;4.90;;;17.70;99.90;;;;;;4754540;30;20047;-93
2022/07/24 06:12:12;;;;;;;8.93;5.40;;;17.90;99.90;;;;;;4755578;30;20059;-93
2022/07/24 06:14:46;;;;;;;9.98;5.93;;;18.00;99.90;;;;;;4764260;30;20051;-93
2022/07/24 06:17:12;;;;;;;6.63;4.97;;;18.20;99.90;;;;;;4771794;30;20142;-93
2022/07/24 06:19:38;;;;;;;9.25;5.55;;;18.30;99.90;;;;;;4767765;30;20122;-96
2022/07/24 06:22:03;;;;;;;10.90;5.93;;;18.40;99.90;;;;;;4753685;30;20059;-86
2022/07/24 06:24:29;;;;;;;9.00;6.22;;;18.50;99.90;;;;;;4770819;30;20142;-88
2022/07/24 06:26:55;;;;;;;10.75;5.70;;;18.50;99.90;;;;;;4771921;30;20515;-88
2022/07/24 06:29:29;;;;;;;12.02;6.53;;;18.60;99.90;;;;;;4771134;30;20500;-87
2022/07/24 06:31:55;;;;;;;8.27;6.00;;;19.20;99.90;;;;;;4757810;30;20071;-89
2022/07/24 06:34:23;;;;;;;12.52;6.53;;;18.90;99.90;;;;;;4738575;30;20043;-89
2022/07/24 06:36:50;;;;;;;13.55;7.13;;;19.00;99.90;;;;;;4741207;30;20063;-95
2022/07/24 06:39:16;;;;;;;12.70;7.05;;;19.20;99.90;;;;;;4768449;30;20085;-87
2022/07/24 06:41:42;;;;;;;10.48;7.38;;;19.30;99.90;;;;;;4738232;30;20270;-90
2022/07/24 06:44:08;;;;;;;11.95;6.88;;;19.40;99.90;;;;;;4744896;30;20501;-89
2022/07/24 06:46:34;;;;;;;13.43;7.43;;;19.50;99.90;;;;;;4758311;30;20058;-89
2022/07/24 06:49:02;;;;;;;11.70;7.78;;;19.70;99.90;;;;;;4751224;30;20055;-90
2022/07/24 06:51:28;;;;;;;16.55;8.07;;;19.80;99.90;;;;;;4753100;30;20130;-90
2022/07/24 06:53:53;;;;;;;13.27;7.85;;;19.90;99.90;;;;;;4752588;30;20553;-89
2022/07/24 06:56:19;;;;;;;12.27;7.40;;;20.00;99.90;;;;;;4769292;30;20151;-90
2022/07/24 06:58:46;;;;;;;14.80;8.38;;;19.90;99.90;;;;;;4769667;30;20047;-90
2022/07/24 07:01:11;;;;;;;14.60;8.75;;;20.30;99.90;;;;;;4761362;30;20051;-88
2022/07/24 07:03:37;;;;;;;12.63;9.13;;;20.40;99.90;;;;;;4758310;30;20116;-89
2022/07/24 07:06:03;;;;;;;11.70;8.55;;;20.50;99.90;;;;;;4746224;30;20070;-89
2022/07/24 07:08:29;;;;;;;12.93;8.13;;;20.60;99.90;;;;;;4764340;30;20073;-88
2022/07/24 07:10:55;;;;;;;15.13;8.50;;;20.70;99.90;;;;;;4754190;30;20047;-89
2022/07/24 07:13:21;;;;;;;12.43;8.48;;;20.80;99.90;;;;;;4755904;30;20039;-89
2022/07/24 07:15:46;;;;;;;13.05;8.07;;;20.90;99.90;;;;;;4752208;30;20497;-89
2022/07/24 07:18:13;;;;;;;15.55;8.50;;;21.00;99.90;;;;;;4752053;30;20051;-89
2022/07/24 07:20:39;;;;;;;11.55;8.70;;;21.00;99.90;;;;;;4737901;30;20139;-88
2022/07/24 07:23:05;;;;;;;14.02;9.07;;;21.00;99.90;;;;;;4750273;30;20135;-89
2022/07/24 07:25:31;;;;;;;13.32;8.63;;;21.00;99.90;;;;;;4738331;30;20128;-90
2022/07/24 07:27:56;;;;;;;14.40;8.75;;;21.00;99.90;;;;;;4738078;30;20518;-90
2022/07/24 07:30:25;;;;;;;14.25;8.68;;;21.10;99.90;;;;;;4737739;30;20067;-90
2022/07/24 07:33:00;;;;;;;11.20;8.73;;;21.20;99.90;;;;;;4738366;30;20493;-90
2022/07/24 07:35:26;;;;;;;12.15;8.65;;;21.40;99.90;;;;;;4737454;30;20142;-90
2022/07/24 07:37:52;;;;;;;11.73;8.57;;;21.50;99.90;;;;;;4738279;30;20139;-90
2022/07/24 07:40:18;;;;;;;14.38;8.90;;;21.70;99.90;;;;;;4748558;30;20062;-90
2022/07/24 07:42:43;;;;;;;12.15;7.90;;;21.90;99.90;;;;;;4769309;30;20047;-89
2022/07/24 07:45:09;;;;;;;14.95;8.18;;;22.00;99.90;;;;;;4769658;30;20047;-89
2022/07/24 07:47:37;;;;;;;11.43;7.68;;;22.30;99.90;;;;;;4770250;30;20495;-89
2022/07/24 07:50:06;;;;;;;12.15;7.53;;;22.50;99.90;;;;;;4769904;30;20131;-89
2022/07/24 07:52:32;;;;;;;12.15;6.28;;;22.80;99.90;;;;;;4770493;30;20043;-89
2022/07/24 07:54:58;;;;;;;10.32;6.13;;;23.00;99.90;;;;;;4769531;30;20509;-90
2022/07/24 07:57:23;;;;;;;8.93;5.80;;;23.00;99.90;;;;;;4755305;30;20043;-90
2022/07/24 07:59:49;;;;;;;8.35;4.95;;;22.90;99.90;;;;;;4770032;30;20051;-89
2022/07/24 08:02:15;;;;;;;9.98;5.18;;;23.10;99.90;;;;;;4766614;29;20493;-87
2022/07/24 08:04:41;;;;;;;9.98;4.78;;;22.90;99.90;;;;;;4750736;30;20193;-87
2022/07/24 08:07:07;;;;;;;12.77;4.57;;;22.90;99.90;;;;;;4750629;30;20051;-88
2022/07/24 08:09:33;;;;;;;7.57;4.13;;;22.90;99.90;;;;;;4768871;30;20047;-87
2022/07/24 08:11:59;;;;;;;8.57;4.20;;;22.90;99.90;;;;;;4768814;30;20050;-87
2022/07/24 08:14:24;;;;;;;6.63;3.58;;;23.10;99.90;;;;;;4767823;30;20043;-89
2022/07/24 08:16:50;;;;;;;5.20;3.00;;;23.10;99.90;;;;;;4769304;30;20503;-88
2022/07/24 08:19:16;;;;;;;4.25;2.60;;;23.20;99.90;;;;;;4769051;30;20502;-88
2022/07/24 08:21:42;;;;;;;6.05;2.50;;;23.20;99.90;;;;;;4768861;30;20053;-88
2022/07/24 08:24:07;;;;;;;5.47;2.80;;;23.30;99.90;;;;;;4769953;30;20143;-92
2022/07/24 08:26:33;;;;;;;5.07;2.55;;;23.40;99.90;;;;;;4768583;30;20436;-88
2022/07/24 08:28:59;;;;;;;9.10;2.38;;;23.60;99.90;;;;;;4768176;30;20439;-89
2022/07/24 08:31:26;;;;;;;4.07;2.40;;;23.90;99.90;;;;;;4782780;30;20050;-87
2022/07/24 08:33:52;;;;;;;6.97;2.50;;;24.00;99.90;;;;;;4768557;30;20051;-88
2022/07/24 08:36:17;;;;;;;5.20;2.10;;;24.10;99.90;;;;;;4766905;30;20051;-87
2022/07/24 08:38:43;;;;;;;9.15;2.70;;;24.40;99.90;;;;;;4767613;30;20249;-88
2022/07/24 08:41:09;;;;;;;5.10;2.40;;;24.60;99.90;;;;;;4753426;30;20061;-89
2022/07/24 08:43:34;;;;;;;5.43;2.35;;;24.70;99.90;;;;;;4768133;30;20047;-88
2022/07/24 08:46:02;;;;;;;4.55;1.98;;;24.80;99.90;;;;;;4768023;30;20534;-91
2022/07/24 08:48:28;;;;;;;3.85;2.22;;;24.70;99.90;;;;;;4767390;30;20047;-89
2022/07/24 08:50:54;;;;;;;6.32;2.30;;;24.60;99.90;;;;;;4766000;30;20134;-86
2022/07/24 08:53:22;;;;;;;3.70;2.10;;;24.60;99.90;;;;;;4749619;30;20058;-86
2022/07/24 08:55:48;;;;;;;5.88;2.40;;;24.50;99.90;;;;;;4749357;30;20124;-87
2022/07/24 08:58:14;;;;;;;4.22;2.50;;;24.50;99.90;;;;;;4735040;30;20047;-86
2022/07/24 09:00:40;;;;;;;6.07;2.10;;;24.60;99.90;;;;;;4738287;30;20530;-88
2022/07/24 09:03:07;;;;;;;4.07;2.25;;;24.60;99.90;;;;;;4767997;30;20142;-90
2022/07/24 09:05:34;;;;;;;4.57;2.30;;;24.60;99.90;;;;;;4767675;30;20043;-88
2022/07/24 09:08:10;;;;;;;4.47;2.28;;;24.60;99.90;;;;;;4766903;30;20043;-84
2022/07/24 09:10:35;;;;;;;7.72;2.83;;;24.40;99.90;;;;;;4765728;30;20051;-86
2022/07/24 09:13:13;;;;;;;5.10;2.22;;;24.40;99.90;;;;;;4759896;30;20517;-86
2022/07/24 09:15:45;;;;;;;7.35;2.17;;;24.40;99.90;;;;;;4744698;30;20043;-86
2022/07/24 09:18:26;;;;;;;4.95;2.75;;;24.50;99.90;;;;;;4745519;30;20050;-85
2022/07/24 09:20:51;;;;;;;5.45;2.75;;;24.60;99.90;;;;;;4763154;30;20093;-86
2022/07/24 09:23:20;;;;;;;8.35;2.33;;;24.60;99.90;;;;;;4733670;30;20106;-86
2022/07/24 09:25:51;;;;;;;3.80;2.17;;;24.50;99.90;;;;;;4741864;30;20055;-87
2022/07/24 09:28:19;;;;;;;5.20;2.20;;;24.40;99.90;;;;;;4754754;30;20047;-87
2022/07/24 09:30:46;;;;;;;8.82;2.47;;;24.40;99.90;;;;;;4754597;30;20445;-86
2022/07/24 09:33:11;;;;;;;8.13;2.40;;;24.40;99.90;;;;;;4754175;30;20051;-86
2022/07/24 09:35:41;;;;;;;8.40;2.70;;;24.50;99.90;;;;;;4769760;30;20406;-85
2022/07/24 09:38:09;;;;;;;8.85;2.53;;;24.50;99.90;;;;;;4754182;30;20052;-85
2022/07/24 09:40:39;;;;;;;6.70;2.80;;;24.70;99.90;;;;;;4768640;30;20055;-85
2022/07/24 09:43:17;;;;;;;7.05;2.60;;;24.80;99.90;;;;;;4754622;30;20047;-85
2022/07/24 09:46:08;;;;;;;10.43;2.95;;;24.90;99.90;;;;;;4767971;30;20055;-85
2022/07/24 09:48:50;;;;;;;7.93;2.65;;;25.10;99.90;;;;;;4769866;30;20058;-85
2022/07/24 09:51:17;;;;;;;6.03;2.20;;;25.10;99.90;;;;;;4769106;30;20047;-84
2022/07/24 09:53:47;;;;;;;7.97;2.05;;;25.30;99.90;;;;;;4770451;30;20146;-90
2022/07/24 09:56:15;;;;;;;5.82;2.42;;;25.40;99.90;;;;;;4756820;30;20059;-90
2022/07/24 09:58:45;;;;;;;4.40;2.08;;;25.50;99.90;;;;;;4757183;30;20115;-90
2022/07/24 10:01:12;;;;;;;9.10;2.65;;;25.80;99.90;;;;;;4770996;30;20087;-90
2022/07/24 10:03:40;;;;;;;31.95;3.63;;;26.00;99.90;;;;;;4756991;30;20047;-90
2022/07/24 10:06:09;;;;;;;7.20;2.40;;;26.10;99.90;;;;;;4756527;30;20098;-89
2022/07/24 10:08:37;;;;;;;5.53;2.30;;;26.10;99.90;;;;;;4754126;30;20054;-89
2022/07/24 10:11:03;;;;;;;5.90;2.03;;;26.10;99.90;;;;;;4768782;30;20048;-89
2022/07/24 10:13:29;;;;;;;4.75;1.70;;;26.10;99.90;;;;;;4771266;30;20477;-90
2022/07/24 10:16:00;;;;;;;3.97;1.90;;;26.20;99.90;;;;;;4756059;30;20051;-91
2022/07/24 10:18:40;;;;;;;4.28;1.67;;;26.30;99.90;;;;;;4770296;30;20059;-90
2022/07/24 10:21:11;;;;;;;4.80;1.90;;;26.40;99.90;;;;;;4771631;30;20055;-89
2022/07/24 10:23:54;;;;;;;9.38;1.90;;;26.40;99.90;;;;;;4753470;30;20511;-91
2022/07/24 10:26:37;;;;;;;6.80;2.28;;;26.50;99.90;;;;;;4754338;30;20048;-90
2022/07/24 10:29:12;;;;;;;6.75;2.00;;;26.50;99.90;;;;;;4756461;30;20139;-90
2022/07/24 10:31:40;;;;;;;5.07;1.88;;;26.40;99.90;;;;;;4785706;29;20055;-90
2022/07/24 10:34:13;;;;;;;12.45;2.75;;;26.40;99.90;;;;;;4771199;30;20051;-90
2022/07/24 10:36:48;;;;;;;5.25;1.85;;;26.40;99.90;;;;;;4784685;29;20055;-92
2022/07/24 10:39:22;;;;;;;7.30;2.10;;;26.40;99.90;;;;;;4786325;29;20047;-92
2022/07/24 10:42:05;;;;;;;29.77;5.03;;;26.40;99.90;;;;;;4755832;30;20134;-90
2022/07/24 10:44:32;;;;;;;6.90;1.90;;;26.40;99.90;;;;;;4770736;30;20059;-92
2022/07/24 10:47:16;;;;;;;5.07;1.63;;;26.50;99.90;;;;;;4770849;30;20094;-91
2022/07/24 10:49:47;;;;;;;5.22;2.08;;;26.60;99.90;;;;;;4768905;30;20043;-91
2022/07/24 10:52:22;;;;;;;6.85;1.98;;;26.80;99.90;;;;;;4753177;30;20432;-90
2022/07/24 10:55:08;;;;;;;6.63;2.08;;;27.10;99.90;;;;;;4753078;30;20055;-89
2022/07/24 10:57:57;;;;;;;4.55;1.80;;;27.30;99.90;;;;;;4753061;30;20051;-92
2022/07/24 11:00:25;;;;;;;4.90;1.85;;;27.50;99.90;;;;;;4752482;30;20191;-89
2022/07/24 11:03:01;;;;;;;7.82;1.83;;;27.60;99.90;;;;;;4765246;30;20143;-86
2022/07/24 11:05:31;;;;;;;5.68;1.83;;;27.80;99.90;;;;;;4749746;30;20143;-87
2022/07/24 11:08:11;;;;;;;6.93;1.42;;;27.80;99.90;;;;;;4755472;30;20395;-86
2022/07/24 11:10:46;;;;;;;7.97;1.77;;;27.80;98.90;;;;;;4767117;30;20087;-86
2022/07/24 11:13:41;;;;;;;4.88;1.80;;;27.70;97.50;;;;;;4735439;30;20109;-84
2022/07/24 11:16:10;;;;;;;3.15;1.48;;;27.40;96.50;;;;;;4749160;30;20143;-85
2022/07/24 11:18:37;;;;;;;5.65;1.60;;;27.50;96.10;;;;;;4749037;30;20121;-85
2022/07/24 11:21:03;;;;;;;8.70;1.75;;;27.50;96.00;;;;;;4742316;30;20295;-83
2022/07/24 11:23:30;;;;;;;3.10;1.45;;;27.40;95.70;;;;;;4759810;30;20400;-86
2022/07/24 11:26:31;;;;;;;8.82;1.52;;;27.50;95.90;;;;;;4743281;30;20051;-86
2022/07/24 11:29:17;;;;;;;2.88;1.50;;;27.50;95.80;;;;;;4763793;30;20091;-86
2022/07/24 11:31:46;;;;;;;5.38;1.92;;;27.70;96.20;;;;;;4751289;30;20135;-84
2022/07/24 11:34:12;;;;;;;3.22;1.40;;;27.70;96.10;;;;;;4761114;30;20044;-84
2022/07/24 11:36:43;;;;;;;3.22;1.42;;;27.80;95.90;;;;;;4759188;30;20508;-84
2022/07/24 11:39:09;;;;;;;7.88;1.60;;;27.90;95.70;;;;;;4760926;30;20055;-84
2022/07/24 11:41:45;;;;;;;8.23;1.33;;;28.00;95.40;;;;;;4759912;30;20051;-85
2022/07/24 11:44:12;;;;;;;4.30;1.75;;;28.10;95.50;;;;;;4751894;30;20493;-86
2022/07/24 11:46:40;;;;;;;8.38;1.58;;;28.10;93.70;;;;;;4747713;30;20055;-85
2022/07/24 11:49:09;;;;;;;6.38;1.35;;;28.20;93.00;;;;;;4763215;30;20150;-84
2022/07/24 11:51:42;;;;;;;26.15;3.25;;;28.20;93.20;;;;;;4765490;30;20547;-85
2022/07/24 11:54:10;;;;;;;6.10;1.67;;;28.40;93.50;;;;;;4766101;30;20059;-85
2022/07/24 11:56:36;;;;;;;3.85;1.67;;;28.40;92.60;;;;;;4759639;30;20089;-84
2022/07/24 11:59:02;;;;;;;7.05;1.70;;;28.50;92.70;;;;;;4765949;30;20083;-85
2022/07/24 12:01:28;;;;;;;14.68;2.35;;;28.60;92.60;;;;;;4765749;30;20055;-85
2022/07/24 12:03:57;;;;;;;4.45;1.60;;;28.60;91.90;;;;;;4767034;30;20093;-84
2022/07/24 12:06:23;;;;;;;19.40;2.10;;;28.60;92.00;;;;;;4764003;30;20058;-84
2022/07/24 12:08:49;;;;;;;11.70;1.90;;;28.60;92.40;;;;;;4781778;29;20051;-84
2022/07/24 12:11:22;;;;;;;20.80;3.38;;;28.60;91.20;;;;;;4781074;29;20116;-85
2022/07/24 12:13:49;;;;;;;5.30;1.52;;;28.40;90.40;;;;;;4763354;30;20091;-86
2022/07/24 12:16:24;;;;;;;9.52;1.60;;;28.30;90.30;;;;;;4763061;30;20069;-86
2022/07/24 12:18:49;;;;;;;8.25;2.15;;;28.20;90.20;;;;;;4763645;30;20062;-84
2022/07/24 12:21:17;;;;;;;36.15;2.75;;;28.10;89.20;;;;;;4760103;30;20048;-85
2022/07/24 12:23:45;;;;;;;7.68;1.48;;;28.10;90.00;;;;;;4735193;30;20086;-83
2022/07/24 12:26:10;;;;;;;4.82;1.88;;;28.10;89.80;;;;;;4749727;30;20078;-86
2022/07/24 12:28:36;;;;;;;5.25;1.30;;;28.10;88.20;;;;;;4766296;30;20086;-85
2022/07/24 12:31:08;;;;;;;12.27;2.10;;;28.10;88.60;;;;;;4765855;30;20404;-85
2022/07/24 12:33:34;;;;;;;6.85;1.48;;;28.10;88.90;;;;;;4766580;30;20050;-85
2022/07/24 12:36:08;;;;;;;5.03;1.60;;;28.10;89.00;;;;;;4751398;30;20055;-85
2022/07/24 12:38:37;;;;;;;23.23;3.08;;;28.10;87.90;;;;;;4765989;30;20082;-83
2022/07/24 12:41:08;;;;;;;5.93;1.67;;;28.10;89.30;;;;;;4781326;29;20406;-88
2022/07/24 12:43:49;;;;;;;4.57;1.65;;;28.20;89.30;;;;;;4765783;30;20061;-86
2022/07/24 12:46:16;;;;;;;12.30;2.05;;;28.00;87.20;;;;;;4740417;30;20586;-84
2022/07/24 12:48:56;;;;;;;5.13;1.73;;;27.70;86.70;;;;;;4756385;30;20070;-84